KTTN/TTN METAR and TAF weather

Enter ICAO airport designator
Station Type Date Time Source
KTTN METAR 2021/04/13 22:53 UTC NOAA

KTTN 132253Z 08003KT 10SM CLR 17/03 A3001 RMK AO2 SLP157 T01670033


Station Type Date Time Source
KTTN Decoded METAR 2021/04/13 22:53 UTC NOAA

TRENTON MERCER COUNTY AIRPORT , NJ, United States (KTTN) 40-17N 074-49W 59M
Apr 13, 2021 - 06:53 PM EDT / 2021.04.13 2253 UTC
Wind: from the E (080 degrees) at 3 MPH (3 KT):0
Visibility: 10 mile(s):0
Sky conditions: clear
Temperature: 62.1 F (16.7 C)
Dew Point: 37.9 F (3.3 C)
Relative Humidity: 40%
Pressure (altimeter): 30.01 in. Hg (1016 hPa)
ob: KTTN 132253Z 08003KT 10SM CLR 17/03 A3001 RMK AO2 SLP157 T01670033
cycle: 23

Station Type Date Time Source
KTTN TAF 2021/04/13 18:36 UTC NOAA

TAF KTTN 131734Z 1318/1418 02006KT P6SM FEW040 FEW250
FM132000 VRB02KT P6SM FEW250
FM141400 23003KT P6SM SCT050 BKN110
FM141700 23005KT P6SM BKN045

Example: see airport list